Time;durP1;ratioP1;P1;durP2;ratioP2;P2;SDS_P1;SDS_P2;PMS_P1;PMS_P2;Temp;Humidity;BMP_temperature;BMP_pressure;BME280_temperature;BME280_humidity;BME280_pressure;Samples;Min_cycle;Max_cycle;Signal;HPM_P1;HPM_P2
2024/01/25 00:00:07;;;;;;;28.43;13.37;;;14.60;99.90;;;;;;10449643;28;20268;-85
2024/01/25 00:05:10;;;;;;;38.27;20.37;;;14.60;99.90;;;;;;10450256;28;20259;-85
2024/01/25 00:10:12;;;;;;;28.10;12.23;;;14.80;99.90;;;;;;10449278;28;20222;-85
2024/01/25 00:15:15;;;;;;;25.17;12.77;;;14.80;99.90;;;;;;10449737;28;20284;-84
2024/01/25 00:20:17;;;;;;;30.67;14.03;;;14.90;99.90;;;;;;10451164;28;20206;-84
2024/01/25 00:25:20;;;;;;;17.90;9.90;;;14.80;99.90;;;;;;10450411;28;20239;-85
2024/01/25 00:30:23;;;;;;;27.97;14.33;;;15.00;99.90;;;;;;10450694;28;20272;-85
2024/01/25 00:35:27;;;;;;;21.43;11.30;;;14.80;99.90;;;;;;10449906;28;20705;-85
2024/01/25 00:40:30;;;;;;;29.87;12.77;;;15.00;99.90;;;;;;10450121;28;20226;-86
2024/01/25 00:45:32;;;;;;;13.80;7.63;;;14.80;99.90;;;;;;10448897;28;20257;-85
2024/01/25 00:50:35;;;;;;;13.57;7.43;;;14.70;99.90;;;;;;10451005;28;20653;-84
2024/01/25 00:55:38;;;;;;;25.83;12.57;;;14.60;99.90;;;;;;10449808;28;20258;-85
2024/01/25 01:00:41;;;;;;;23.03;10.60;;;15.00;99.90;;;;;;10449343;28;20203;-84
2024/01/25 01:05:44;;;;;;;17.03;6.57;;;14.50;99.90;;;;;;10448779;28;20315;-85
2024/01/25 01:10:47;;;;;;;8.40;4.57;;;14.80;99.90;;;;;;10456580;28;20280;-85
2024/01/25 01:15:49;;;;;;;16.00;8.60;;;14.50;99.90;;;;;;10456570;28;20383;-85
2024/01/25 01:20:52;;;;;;;13.77;7.17;;;14.80;99.90;;;;;;10455392;28;20711;-84
2024/01/25 01:25:54;;;;;;;12.73;6.37;;;14.70;99.90;;;;;;10454873;28;20207;-86
2024/01/25 01:30:57;;;;;;;12.27;6.27;;;15.00;99.90;;;;;;10456466;28;20235;-85
2024/01/25 01:36:00;;;;;;;7.47;5.07;;;15.00;99.90;;;;;;10456756;28;20691;-85
2024/01/25 01:41:02;;;;;;;10.43;6.17;;;14.80;99.90;;;;;;10456701;28;20619;-85
2024/01/25 01:46:13;;;;;;;9.63;3.97;;;14.90;99.90;;;;;;10456000;28;20692;-84
2024/01/25 01:51:16;;;;;;;11.93;5.70;;;15.00;99.90;;;;;;10456520;28;20238;-85
2024/01/25 01:56:19;;;;;;;12.17;4.67;;;15.00;99.90;;;;;;10455796;28;20304;-85
2024/01/25 02:01:22;;;;;;;14.33;4.70;;;14.90;99.90;;;;;;10456017;28;20561;-86
2024/01/25 02:06:25;;;;;;;7.77;4.43;;;14.80;99.90;;;;;;10454901;28;20238;-85
2024/01/25 02:11:28;;;;;;;7.47;4.37;;;14.90;99.90;;;;;;10454653;28;20258;-85
2024/01/25 02:16:31;;;;;;;12.97;6.17;;;15.00;99.90;;;;;;10455458;28;20249;-84
2024/01/25 02:21:34;;;;;;;11.40;4.73;;;15.00;99.90;;;;;;10453683;28;20230;-85
2024/01/25 02:26:36;;;;;;;12.53;5.63;;;14.90;99.90;;;;;;10413608;28;20223;-84
2024/01/25 02:31:39;;;;;;;8.43;3.37;;;14.80;99.90;;;;;;10450511;28;20199;-85
2024/01/25 02:36:42;;;;;;;9.87;3.70;;;15.00;99.90;;;;;;10452545;28;20829;-86
2024/01/25 02:41:44;;;;;;;16.23;6.43;;;14.70;99.90;;;;;;10452505;28;20310;-85
2024/01/25 02:46:47;;;;;;;4.93;3.07;;;14.90;99.90;;;;;;10452305;28;20246;-86
2024/01/25 02:51:49;;;;;;;8.13;3.30;;;14.90;99.90;;;;;;10450881;28;20642;-86
2024/01/25 02:56:52;;;;;;;7.90;3.17;;;15.10;99.90;;;;;;10434006;28;20574;-85
2024/01/25 03:01:54;;;;;;;4.40;2.23;;;14.90;99.90;;;;;;10451025;28;20590;-86
2024/01/25 03:06:57;;;;;;;7.77;3.10;;;14.90;99.90;;;;;;10452140;28;20724;-85
2024/01/25 03:12:00;;;;;;;6.53;1.60;;;14.90;99.90;;;;;;10450248;28;20230;-86
2024/01/25 03:17:02;;;;;;;5.83;2.53;;;14.90;99.90;;;;;;10450233;28;20238;-87
2024/01/25 03:22:05;;;;;;;6.57;2.50;;;14.70;99.90;;;;;;10451599;28;20607;-86
2024/01/25 03:27:13;;;;;;;10.57;3.57;;;14.50;99.90;;;;;;10450049;28;20203;-85
2024/01/25 03:32:16;;;;;;;10.47;3.17;;;14.60;99.90;;;;;;10450186;28;20319;-86
2024/01/25 03:37:18;;;;;;;6.77;3.43;;;14.60;99.90;;;;;;10450677;28;20319;-86
2024/01/25 03:42:21;;;;;;;6.27;1.97;;;14.80;99.90;;;;;;10450180;28;20222;-87
2024/01/25 03:47:23;;;;;;;8.93;2.73;;;14.70;99.90;;;;;;10450318;28;20218;-86
2024/01/25 03:52:29;;;;;;;9.60;2.50;;;14.80;99.90;;;;;;10449926;28;20187;-86
2024/01/25 03:57:32;;;;;;;4.37;1.87;;;14.50;99.90;;;;;;10448621;28;20207;-86
2024/01/25 04:02:35;;;;;;;14.87;3.33;;;14.60;99.90;;;;;;10438311;28;20230;-85
2024/01/25 04:07:37;;;;;;;6.43;2.40;;;14.50;99.90;;;;;;10450073;28;20687;-85
2024/01/25 04:12:40;;;;;;;8.20;2.63;;;14.70;99.90;;;;;;10450150;28;20242;-86
2024/01/25 04:17:43;;;;;;;3.67;1.33;;;14.70;99.90;;;;;;10448585;28;20614;-86
2024/01/25 04:22:45;;;;;;;4.83;1.70;;;14.60;99.90;;;;;;10449476;28;20230;-85
2024/01/25 04:27:48;;;;;;;6.77;3.00;;;14.70;99.90;;;;;;10449659;28;20230;-86
2024/01/25 04:32:51;;;;;;;5.77;2.67;;;14.70;99.90;;;;;;10449117;28;20257;-86
2024/01/25 04:37:54;;;;;;;3.97;2.03;;;15.00;99.90;;;;;;10448819;28;20732;-86
2024/01/25 04:42:56;;;;;;;9.83;1.87;;;14.90;99.90;;;;;;10451211;28;21044;-86
2024/01/25 04:47:59;;;;;;;6.47;2.53;;;14.70;99.90;;;;;;10456322;28;20234;-85
2024/01/25 04:53:02;;;;;;;5.47;1.63;;;14.90;99.90;;;;;;10456726;28;20258;-87
2024/01/25 04:58:05;;;;;;;9.23;3.90;;;14.70;99.90;;;;;;10455300;28;20248;-86
2024/01/25 05:03:07;;;;;;;9.83;2.53;;;14.90;99.90;;;;;;10455774;28;20231;-86
2024/01/25 05:08:10;;;;;;;8.97;2.10;;;14.80;99.90;;;;;;10455911;28;20737;-87
2024/01/25 05:13:12;;;;;;;8.30;2.73;;;14.80;99.90;;;;;;10454382;28;20340;-86
2024/01/25 05:18:15;;;;;;;4.07;1.67;;;14.70;99.90;;;;;;10455687;28;20227;-86
2024/01/25 05:23:17;;;;;;;5.40;1.90;;;14.80;99.90;;;;;;10454026;28;20227;-86
2024/01/25 05:28:20;;;;;;;6.27;2.17;;;14.70;99.90;;;;;;10454669;28;20273;-85
2024/01/25 05:33:23;;;;;;;5.63;1.93;;;14.70;99.90;;;;;;10454552;28;20678;-86
2024/01/25 05:38:25;;;;;;;9.33;3.07;;;14.80;99.90;;;;;;10453386;28;20227;-85
2024/01/25 05:43:28;;;;;;;6.57;1.80;;;14.70;99.90;;;;;;10454066;28;20238;-85
2024/01/25 05:48:30;;;;;;;2.27;1.50;;;14.70;99.90;;;;;;10452956;28;20761;-86
2024/01/25 05:53:33;;;;;;;2.90;1.47;;;14.60;99.90;;;;;;10451848;28;20306;-86
2024/01/25 05:58:36;;;;;;;3.10;1.53;;;14.60;99.90;;;;;;10454394;28;20658;-86
2024/01/25 06:03:38;;;;;;;7.33;1.60;;;14.30;99.90;;;;;;10453810;28;20270;-86
2024/01/25 06:08:41;;;;;;;2.03;1.43;;;14.30;99.90;;;;;;10453689;28;20238;-86
2024/01/25 06:13:48;;;;;;;6.87;1.37;;;14.50;99.90;;;;;;10452979;28;20346;-87
2024/01/25 06:18:51;;;;;;;7.93;2.13;;;14.40;99.90;;;;;;10452958;28;20234;-87
2024/01/25 06:23:54;;;;;;;4.63;1.33;;;14.30;99.90;;;;;;10424576;28;20702;-85
2024/01/25 06:28:59;;;;;;;4.80;1.30;;;14.60;99.90;;;;;;10452615;28;20276;-87
2024/01/25 06:34:08;;;;;;;10.93;1.83;;;14.40;99.90;;;;;;10427245;28;20704;-86
2024/01/25 06:39:11;;;;;;;12.63;2.60;;;14.40;99.90;;;;;;10453039;28;20230;-86
2024/01/25 06:44:14;;;;;;;9.33;2.33;;;14.30;99.90;;;;;;10452352;28;20246;-86
2024/01/25 06:49:16;;;;;;;4.77;1.70;;;14.00;99.90;;;;;;10450260;28;20234;-85
2024/01/25 06:54:19;;;;;;;10.77;1.67;;;13.80;99.90;;;;;;10452077;28;20679;-86
2024/01/25 06:59:21;;;;;;;9.73;2.63;;;13.10;99.90;;;;;;10450561;28;20231;-86
2024/01/25 07:04:24;;;;;;;10.03;2.70;;;12.60;99.90;;;;;;10449046;28;20713;-85
2024/01/25 07:09:28;;;;;;;7.77;1.83;;;12.70;99.90;;;;;;10449487;28;20218;-85
2024/01/25 07:14:30;;;;;;;5.03;1.10;;;12.80;99.90;;;;;;10449650;28;20292;-86
2024/01/25 07:19:33;;;;;;;4.90;1.30;;;12.70;99.90;;;;;;10449621;28;20277;-86
2024/01/25 07:24:35;;;;;;;7.60;1.80;;;12.80;99.90;;;;;;10449317;28;20231;-85
2024/01/25 07:29:38;;;;;;;3.97;1.77;;;12.70;99.90;;;;;;10450025;28;20194;-85
2024/01/25 07:34:40;;;;;;;6.77;1.43;;;12.80;99.90;;;;;;10446230;28;20280;-86
2024/01/25 07:39:43;;;;;;;8.00;2.37;;;13.00;99.90;;;;;;10449665;28;20214;-86
2024/01/25 07:44:45;;;;;;;3.67;1.60;;;12.70;99.90;;;;;;10453701;28;20576;-86
2024/01/25 07:49:48;;;;;;;10.40;1.83;;;13.00;99.90;;;;;;10453474;28;20207;-86
2024/01/25 07:54:53;;;;;;;7.47;1.80;;;12.80;99.90;;;;;;10451822;28;20250;-86
2024/01/25 07:59:55;;;;;;;5.00;1.90;;;13.20;99.90;;;;;;10450824;28;20288;-85
2024/01/25 08:04:58;;;;;;;5.50;1.07;;;13.20;99.90;;;;;;10449157;28;20258;-86
2024/01/25 08:10:01;;;;;;;4.30;1.30;;;13.50;99.90;;;;;;10451580;28;20206;-87
2024/01/25 08:15:05;;;;;;;4.70;1.33;;;13.80;99.90;;;;;;10450510;28;20273;-86
2024/01/25 08:20:09;;;;;;;3.03;0.80;;;13.60;99.90;;;;;;10455206;28;20239;-85
2024/01/25 08:25:13;;;;;;;1.33;0.93;;;13.70;99.90;;;;;;10455908;28;20591;-86
2024/01/25 08:30:16;;;;;;;8.43;2.30;;;13.80;99.90;;;;;;10457365;28;20229;-87
2024/01/25 08:35:18;;;;;;;5.90;1.60;;;13.90;99.90;;;;;;10455607;28;20266;-86
2024/01/25 08:40:21;;;;;;;2.47;0.90;;;13.80;99.90;;;;;;10454468;28;20227;-87
2024/01/25 08:45:24;;;;;;;7.77;1.87;;;14.00;99.90;;;;;;10454987;28;20264;-85
2024/01/25 08:50:26;;;;;;;12.53;1.07;;;13.90;99.90;;;;;;10455719;28;20288;-86
2024/01/25 08:55:29;;;;;;;9.17;1.87;;;14.00;99.90;;;;;;10456523;28;20266;-84
2024/01/25 09:00:32;;;;;;;8.03;1.33;;;13.90;99.90;;;;;;10455927;28;20288;-86
2024/01/25 09:05:39;;;;;;;3.93;1.17;;;13.90;99.90;;;;;;10456446;28;20707;-86
2024/01/25 09:10:42;;;;;;;6.43;1.40;;;13.90;99.90;;;;;;10454137;28;20207;-86
2024/01/25 09:15:46;;;;;;;5.53;1.17;;;13.40;99.90;;;;;;10451571;28;20662;-86
2024/01/25 09:20:49;;;;;;;5.97;1.10;;;13.80;99.90;;;;;;10451865;28;20226;-88
2024/01/25 09:25:52;;;;;;;5.93;1.47;;;14.10;99.90;;;;;;10449881;28;20242;-87
2024/01/25 09:30:55;;;;;;;8.13;3.10;;;13.90;99.90;;;;;;10454627;28;20234;-87
2024/01/25 09:35:58;;;;;;;11.97;3.07;;;;;;;;;;10453694;28;20630;-86
2024/01/25 09:41:01;;;;;;;14.60;3.80;;;7.70;99.90;;;;;;10454162;28;20297;-83
2024/01/25 09:46:06;;;;;;;9.97;4.33;;;7.60;99.90;;;;;;10455284;28;20234;-83
2024/01/25 09:51:11;;;;;;;16.17;7.33;;;7.30;99.90;;;;;;10455000;28;20292;-83
2024/01/25 09:56:17;;;;;;;8.80;4.17;;;7.30;99.90;;;;;;10453540;28;20256;-82
2024/01/25 10:01:19;;;;;;;8.73;3.00;;;7.30;99.90;;;;;;10453527;28;20569;-82
2024/01/25 10:06:23;;;;;;;12.17;3.70;;;7.10;99.90;;;;;;10454248;28;20256;-81
2024/01/25 10:11:28;;;;;;;10.30;3.27;;;7.10;99.90;;;;;;10453944;28;20203;-82
2024/01/25 10:16:31;;;;;;;11.73;3.50;;;7.00;99.90;;;;;;10454263;28;20277;-82
2024/01/25 10:21:36;;;;;;;12.73;4.13;;;6.90;99.90;;;;;;10446435;28;20285;-82
2024/01/25 10:26:42;;;;;;;13.50;4.50;;;6.80;99.90;;;;;;10452632;28;20234;-82
2024/01/25 10:31:45;;;;;;;13.07;3.67;;;6.80;99.90;;;;;;10453045;28;20265;-83
2024/01/25 10:36:51;;;;;;;40.00;17.03;;;6.70;99.90;;;;;;10450266;28;20270;-86
2024/01/25 10:41:56;;;;;;;15.37;6.97;;;7.30;99.90;;;;;;10451768;28;20622;-86
2024/01/25 10:46:59;;;;;;;10.43;3.60;;;7.30;99.90;;;;;;10451797;28;20288;-85
2024/01/25 10:52:05;;;;;;;12.57;4.40;;;6.80;99.90;;;;;;10449383;28;20231;-86
2024/01/25 10:57:08;;;;;;;13.53;3.97;;;6.60;99.90;;;;;;10451643;28;20320;-87
2024/01/25 11:02:11;;;;;;;13.80;4.57;;;6.60;99.90;;;;;;10451152;28;20238;-87
2024/01/25 11:07:14;;;;;;;17.53;4.97;;;6.50;99.90;;;;;;10450634;28;20312;-86
2024/01/25 11:12:19;;;;;;;21.63;7.60;;;6.50;99.90;;;;;;10451081;28;20238;-86
2024/01/25 11:17:23;;;;;;;15.83;4.87;;;6.50;99.90;;;;;;10449522;28;20242;-81
2024/01/25 11:22:35;;;;;;;137.10;70.40;;;6.50;99.90;;;;;;10450198;28;20230;-81
2024/01/25 11:27:38;;;;;;;19.17;5.83;;;6.50;99.90;;;;;;10450019;28;20218;-82
2024/01/25 11:32:41;;;;;;;20.90;5.40;;;6.50;99.90;;;;;;10432043;28;20292;-82
2024/01/25 11:37:48;;;;;;;20.37;5.57;;;6.50;99.90;;;;;;10448524;28;20321;-82
2024/01/25 11:42:51;;;;;;;16.57;5.27;;;6.40;99.90;;;;;;10449113;28;20227;-81
2024/01/25 11:47:53;;;;;;;21.10;5.77;;;6.40;99.90;;;;;;10448787;28;20260;-86
2024/01/25 11:52:56;;;;;;;20.37;7.07;;;6.40;99.90;;;;;;10447577;28;20235;-87
2024/01/25 11:57:58;;;;;;;16.60;5.33;;;6.50;99.90;;;;;;10449021;28;20250;-87
2024/01/25 12:03:12;;;;;;;23.00;6.73;;;6.50;99.90;;;;;;10449117;28;20222;-87
2024/01/25 12:08:17;;;;;;;23.13;6.43;;;6.50;99.90;;;;;;10447303;28;20256;-86
2024/01/25 12:13:20;;;;;;;29.10;8.83;;;6.50;99.90;;;;;;10447114;28;20279;-82
2024/01/25 12:18:23;;;;;;;27.97;7.77;;;6.50;99.90;;;;;;10447938;28;20293;-86
2024/01/25 12:23:36;;;;;;;22.00;6.30;;;6.50;99.90;;;;;;10447586;28;20272;-81
2024/01/25 12:28:38;;;;;;;19.67;7.20;;;6.40;99.90;;;;;;10448644;28;20265;-82
2024/01/25 12:33:41;;;;;;;30.00;9.13;;;6.40;99.90;;;;;;10448478;28;20250;-86
2024/01/25 12:38:44;;;;;;;21.37;6.70;;;6.40;99.90;;;;;;10430457;28;20689;-84
2024/01/25 12:43:47;;;;;;;18.30;5.77;;;6.30;99.90;;;;;;10449130;28;20280;-86
2024/01/25 12:48:54;;;;;;;24.37;6.57;;;6.30;99.90;;;;;;10447525;28;20230;-86
2024/01/25 12:53:58;;;;;;;18.27;6.37;;;6.30;99.90;;;;;;10435830;28;20284;-82
2024/01/25 12:59:01;;;;;;;25.17;6.40;;;6.40;99.90;;;;;;10446497;28;20254;-81
2024/01/25 13:04:03;;;;;;;19.13;6.57;;;6.40;99.90;;;;;;10450085;28;20234;-81
2024/01/25 13:09:06;;;;;;;17.57;5.47;;;6.40;99.90;;;;;;10454133;28;20231;-81
2024/01/25 13:14:09;;;;;;;22.23;5.07;;;6.50;99.90;;;;;;10454886;28;20280;-84
2024/01/25 13:19:11;;;;;;;22.97;5.33;;;6.50;99.90;;;;;;10454219;28;20254;-88
2024/01/25 13:24:14;;;;;;;29.60;10.57;;;6.60;99.90;;;;;;10455899;28;20303;-88
2024/01/25 13:29:17;;;;;;;24.77;7.10;;;7.70;99.90;;;;;;10456079;28;20665;-88
2024/01/25 13:34:19;;;;;;;16.60;9.20;;;9.70;99.90;;;;;;10455349;28;20263;-88
2024/01/25 13:39:22;;;;;;;16.97;6.67;;;10.30;99.90;;;;;;10452748;28;20261;-88
2024/01/25 13:44:25;;;;;;;149.53;59.20;;;11.30;99.90;;;;;;10454837;28;20237;-89
2024/01/25 13:49:27;;;;;;;32.83;14.63;;;11.80;99.90;;;;;;10454003;28;20240;-88
2024/01/25 13:54:30;;;;;;;29.97;11.07;;;11.70;99.90;;;;;;10453779;28;20290;-90
2024/01/25 13:59:33;;;;;;;24.40;13.43;;;11.70;99.90;;;;;;10454597;28;20279;-89
2024/01/25 14:04:35;;;;;;;34.87;14.93;;;12.00;99.90;;;;;;10454444;28;20680;-90
2024/01/25 14:09:40;;;;;;;31.37;15.23;;;11.70;99.90;;;;;;10454304;28;20230;-89
2024/01/25 14:14:43;;;;;;;21.13;10.47;;;12.10;99.90;;;;;;10452262;28;20292;-85
2024/01/25 14:19:46;;;;;;;20.63;8.60;;;12.00;99.90;;;;;;10451416;28;20230;-86
2024/01/25 14:24:51;;;;;;;31.47;13.37;;;11.90;99.90;;;;;;10453189;28;20360;-88
2024/01/25 14:29:54;;;;;;;33.90;16.63;;;12.00;99.90;;;;;;10453595;28;20260;-88
2024/01/25 14:34:57;;;;;;;36.13;14.03;;;11.90;99.90;;;;;;10453099;28;20320;-87
2024/01/25 14:40:00;;;;;;;23.10;12.27;;;12.20;99.90;;;;;;10452074;28;20207;-89
2024/01/25 14:45:22;;;;;;;27.13;14.27;;;12.10;99.90;;;;;;10450664;28;20304;-88
2024/01/25 14:50:25;;;;;;;29.80;12.40;;;11.50;99.90;;;;;;10450456;28;20242;-89
2024/01/25 14:55:27;;;;;;;33.93;16.83;;;11.60;99.90;;;;;;10450107;28;20254;-88
2024/01/25 15:00:31;;;;;;;28.97;12.73;;;;;;;;;;10450264;28;20222;-89
2024/01/25 15:05:33;;;;;;;18.80;9.10;;;12.30;99.90;;;;;;10450160;28;20300;-88
2024/01/25 15:10:36;;;;;;;23.90;11.47;;;11.90;99.90;;;;;;10450519;28;20597;-90
2024/01/25 15:15:38;;;;;;;28.20;13.77;;;12.00;99.90;;;;;;10450319;28;20250;-89
2024/01/25 15:20:41;;;;;;;28.13;11.87;;;11.90;99.90;;;;;;10449586;28;20226;-89
2024/01/25 15:25:43;;;;;;;32.13;15.53;;;12.00;99.90;;;;;;10450549;28;20320;-86
2024/01/25 15:30:46;;;;;;;34.33;15.60;;;12.30;99.90;;;;;;10451062;28;20693;-86
2024/01/25 15:35:49;;;;;;;17.87;7.77;;;12.40;99.90;;;;;;10449451;28;20694;-87
2024/01/25 15:40:52;;;;;;;10.13;5.10;;;12.20;99.90;;;;;;10449733;28;20285;-89
2024/01/25 15:45:54;;;;;;;91.10;45.57;;;12.20;99.90;;;;;;10449467;28;20667;-90
2024/01/25 15:50:56;;;;;;;74.80;36.83;;;11.40;99.90;;;;;;10449899;28;20898;-90
2024/01/25 15:56:01;;;;;;;68.20;33.40;;;11.80;99.90;;;;;;10449376;28;20254;-88
2024/01/25 16:01:03;;;;;;;64.10;33.43;;;12.40;99.90;;;;;;10444718;28;20235;-89
2024/01/25 16:06:06;;;;;;;77.73;39.90;;;12.50;99.90;;;;;;10448082;28;20242;-89
2024/01/25 16:11:11;;;;;;;66.63;36.63;;;12.70;99.90;;;;;;10452303;28;20290;-90
2024/01/25 16:16:16;;;;;;;52.20;27.73;;;13.10;99.90;;;;;;10048611;28;9999617;-89
2024/01/25 16:21:19;;;;;;;73.17;34.83;;;12.50;99.90;;;;;;10407283;28;20944;-89
2024/01/25 16:26:23;;;;;;;76.73;42.07;;;13.00;99.90;;;;;;10447864;28;20225;-90
2024/01/25 16:31:25;;;;;;;67.17;37.47;;;14.10;99.90;;;;;;10451473;28;20207;-90
2024/01/25 16:36:28;;;;;;;49.03;28.43;;;14.10;99.90;;;;;;10451038;28;20254;-90
2024/01/25 16:41:31;;;;;;;80.17;40.07;;;14.00;99.90;;;;;;10458176;28;20233;-89
2024/01/25 16:46:34;;;;;;;21.83;9.33;;;14.10;99.90;;;;;;10455650;28;20292;-89
2024/01/25 16:51:36;;;;;;;21.37;9.27;;;13.50;99.90;;;;;;10455010;28;20234;-90
2024/01/25 16:56:39;;;;;;;18.40;8.40;;;12.70;99.90;;;;;;10454390;28;20249;-90
2024/01/25 17:01:42;;;;;;;14.80;7.40;;;12.10;99.90;;;;;;10454082;28;20696;-88
2024/01/25 17:06:45;;;;;;;15.90;7.03;;;11.90;99.90;;;;;;10453923;28;20954;-90
2024/01/25 17:11:47;;;;;;;15.97;5.60;;;11.50;99.90;;;;;;10454424;28;20226;-89
2024/01/25 17:16:50;;;;;;;15.80;7.80;;;12.00;99.90;;;;;;10411873;28;20251;-89
2024/01/25 17:21:53;;;;;;;17.23;6.10;;;11.90;99.90;;;;;;10411904;28;20697;-89
2024/01/25 17:26:55;;;;;;;10.50;4.83;;;11.30;99.90;;;;;;10409855;28;20957;-90
2024/01/25 17:31:58;;;;;;;12.27;5.10;;;11.40;99.90;;;;;;10413088;28;20235;-90
2024/01/25 17:37:00;;;;;;;10.90;5.03;;;10.80;99.90;;;;;;10411472;28;20293;-90
2024/01/25 17:42:04;;;;;;;19.53;6.37;;;10.90;99.90;;;;;;10412249;28;20223;-90
2024/01/25 17:47:07;;;;;;;9.57;4.97;;;10.40;99.90;;;;;;10412338;28;20248;-89
2024/01/25 17:52:09;;;;;;;7.47;4.17;;;10.20;99.90;;;;;;10410602;28;20243;-90
2024/01/25 17:57:15;;;;;;;12.60;7.43;;;10.40;99.90;;;;;;10413417;28;20724;-89
2024/01/25 18:02:17;;;;;;;11.60;3.23;;;10.80;99.90;;;;;;10413254;28;20289;-90
2024/01/25 18:07:20;;;;;;;14.20;7.03;;;10.30;99.90;;;;;;10414107;28;20276;-90
2024/01/25 18:12:22;;;;;;;8.90;4.50;;;10.80;99.90;;;;;;10414328;28;20223;-89
2024/01/25 18:17:25;;;;;;;12.57;6.17;;;10.80;99.90;;;;;;10413011;28;20650;-90
2024/01/25 18:22:27;;;;;;;16.73;5.30;;;10.40;99.90;;;;;;10412688;28;20615;-90
2024/01/25 18:27:31;;;;;;;9.67;3.93;;;10.40;99.90;;;;;;10413285;28;20204;-90
2024/01/25 18:32:34;;;;;;;11.50;6.03;;;10.20;99.90;;;;;;10412479;28;20289;-89
2024/01/25 18:37:37;;;;;;;15.40;6.57;;;9.70;99.90;;;;;;10410169;28;20271;-90
2024/01/25 18:42:39;;;;;;;12.43;4.60;;;10.00;99.90;;;;;;10411667;28;20612;-90
2024/01/25 18:47:42;;;;;;;10.50;5.33;;;10.20;99.90;;;;;;10411822;28;20295;-90
2024/01/25 18:52:45;;;;;;;16.93;7.07;;;10.00;99.90;;;;;;10410147;28;20214;-91
2024/01/25 18:57:48;;;;;;;9.30;5.10;;;10.00;99.90;;;;;;10409812;28;20301;-90
2024/01/25 19:02:50;;;;;;;12.47;6.10;;;10.00;99.90;;;;;;10410638;28;20301;-90
2024/01/25 19:07:54;;;;;;;9.07;3.53;;;9.90;99.90;;;;;;10411177;28;20306;-90
2024/01/25 19:12:56;;;;;;;9.33;4.70;;;9.20;99.90;;;;;;10410344;28;20643;-89
2024/01/25 19:17:59;;;;;;;10.37;5.87;;;9.30;99.90;;;;;;10409206;28;20267;-90
2024/01/25 19:23:03;;;;;;;10.23;5.17;;;9.20;99.90;;;;;;10449366;28;20227;-90
2024/01/25 19:28:05;;;;;;;13.33;4.30;;;9.40;99.90;;;;;;10450475;28;20576;-90
2024/01/25 19:33:08;;;;;;;9.90;4.40;;;9.50;99.90;;;;;;10449730;28;20605;-90
2024/01/25 19:38:11;;;;;;;11.03;3.80;;;9.00;99.90;;;;;;10450769;28;20319;-91
2024/01/25 19:43:15;;;;;;;10.63;4.10;;;8.50;99.90;;;;;;10450625;28;20199;-91
2024/01/25 19:48:17;;;;;;;16.63;5.20;;;8.70;99.90;;;;;;10450586;28;20203;-90
2024/01/25 19:53:20;;;;;;;17.67;8.23;;;9.00;99.90;;;;;;10449191;28;20215;-91
2024/01/25 19:58:27;;;;;;;16.63;9.43;;;9.70;99.90;;;;;;10449558;28;20571;-89
2024/01/25 20:03:30;;;;;;;17.30;5.87;;;10.60;99.90;;;;;;10447231;28;20203;-90
2024/01/25 20:08:33;;;;;;;72.83;35.80;;;10.40;99.90;;;;;;10448528;28;20234;-91
2024/01/25 20:13:36;;;;;;;9.97;4.33;;;10.80;99.90;;;;;;10447622;28;20253;-90
2024/01/25 20:18:38;;;;;;;15.23;5.37;;;10.70;99.90;;;;;;10438741;28;20271;-90
2024/01/25 20:23:41;;;;;;;12.77;4.80;;;10.60;99.90;;;;;;10448773;28;20223;-88
2024/01/25 20:28:44;;;;;;;11.87;4.67;;;10.60;99.90;;;;;;10440589;28;20239;-90
2024/01/25 20:33:46;;;;;;;42.63;10.70;;;10.20;99.90;;;;;;10445477;28;20267;-91
2024/01/25 20:38:50;;;;;;;31.07;8.47;;;10.30;99.90;;;;;;10429358;28;20262;-90
2024/01/25 20:43:53;;;;;;;12.53;5.13;;;10.10;99.90;;;;;;10447419;28;20236;-89
2024/01/25 20:48:55;;;;;;;124.17;57.53;;;9.30;99.90;;;;;;10445009;28;20257;-90
2024/01/25 20:53:59;;;;;;;32.07;11.57;;;9.40;99.90;;;;;;10446954;28;20312;-90
2024/01/25 20:59:06;;;;;;;20.37;6.73;;;8.70;99.90;;;;;;10424430;28;20719;-88
2024/01/25 21:04:09;;;;;;;22.37;7.60;;;8.80;99.90;;;;;;10445822;28;20583;-89
2024/01/25 21:09:12;;;;;;;21.87;9.03;;;8.70;99.90;;;;;;10443513;28;20281;-89
2024/01/25 21:14:15;;;;;;;11.40;5.03;;;;;;;;;;10446487;28;20238;-89
2024/01/25 21:19:18;;;;;;;11.30;5.23;;;8.70;99.90;;;;;;10447778;28;20823;-89
2024/01/25 21:24:21;;;;;;;21.00;7.17;;;9.30;99.90;;;;;;10451112;28;20637;-91
2024/01/25 21:29:24;;;;;;;15.37;6.10;;;9.60;99.90;;;;;;10455902;28;20284;-89
2024/01/25 21:34:26;;;;;;;21.90;12.03;;;9.80;99.90;;;;;;10453300;28;20289;-89
2024/01/25 21:39:28;;;;;;;36.87;13.57;;;9.50;99.90;;;;;;10452296;28;20258;-89
2024/01/25 21:44:31;;;;;;;38.87;17.53;;;9.40;99.90;;;;;;10442814;28;20769;-89
2024/01/25 21:49:34;;;;;;;39.47;14.97;;;9.60;99.90;;;;;;10433020;28;20689;-88
2024/01/25 21:54:37;;;;;;;11.63;5.23;;;10.10;99.90;;;;;;10448447;28;20230;-88
2024/01/25 21:59:41;;;;;;;12.83;4.60;;;8.90;99.90;;;;;;10444624;28;20251;-89
2024/01/25 22:04:43;;;;;;;16.60;5.87;;;8.70;99.90;;;;;;10415388;28;20239;-90
2024/01/25 22:09:46;;;;;;;16.17;5.30;;;9.10;99.90;;;;;;10453399;28;20302;-90
2024/01/25 22:14:48;;;;;;;13.93;5.33;;;8.60;99.90;;;;;;10435549;28;20574;-88
2024/01/25 22:19:51;;;;;;;18.50;5.90;;;8.20;99.90;;;;;;10445473;28;20710;-90
2024/01/25 22:24:54;;;;;;;18.10;4.63;;;8.00;99.90;;;;;;10453275;28;20231;-89
2024/01/25 22:29:57;;;;;;;14.23;5.90;;;7.90;99.90;;;;;;10452528;28;20265;-86
2024/01/25 22:34:59;;;;;;;13.70;5.13;;;8.30;99.90;;;;;;10450325;28;20259;-86
2024/01/25 22:40:03;;;;;;;13.73;5.30;;;8.90;99.90;;;;;;10451142;28;20704;-85
2024/01/25 22:45:06;;;;;;;9.97;4.63;;;9.20;99.90;;;;;;10450127;28;20231;-85
2024/01/25 22:50:09;;;;;;;11.63;4.97;;;9.40;99.90;;;;;;10451948;28;20299;-91
2024/01/25 22:55:11;;;;;;;9.20;4.07;;;9.50;99.90;;;;;;10450473;28;20317;-91
2024/01/25 23:00:20;;;;;;;13.03;4.80;;;9.70;99.90;;;;;;10451397;28;20724;-90
2024/01/25 23:05:24;;;;;;;10.27;3.97;;;9.50;99.90;;;;;;10451553;28;20235;-91
2024/01/25 23:10:27;;;;;;;10.60;4.80;;;;;;;;;;10450015;28;20265;-90
2024/01/25 23:15:30;;;;;;;9.57;4.50;;;;;;;;;;10451266;28;20227;-90
2024/01/25 23:20:33;;;;;;;10.93;4.33;;;;;;;;;;10451422;28;20255;-88
2024/01/25 23:25:37;;;;;;;14.77;4.60;;;;;;;;;;10449748;28;20206;-90
2024/01/25 23:30:39;;;;;;;13.17;4.30;;;;;;;;;;10451026;28;20238;-89
2024/01/25 23:35:43;;;;;;;11.63;4.57;;;;;;;;;;10449815;28;20246;-90
2024/01/25 23:40:46;;;;;;;12.70;4.73;;;;;;;;;;10449271;28;20254;-89
2024/01/25 23:45:49;;;;;;;6.50;3.80;;;;;;;;;;10448402;28;20301;-89
2024/01/25 23:50:52;;;;;;;8.37;3.60;;;;;;;;;;10450442;28;20284;-90
2024/01/25 23:55:55;;;;;;;10.80;3.30;;;;;;;;;;10450414;28;20588;-88
